Time;durP1;ratioP1;P1;durP2;ratioP2;P2;SDS_P1;SDS_P2;PMS_P1;PMS_P2;Temp;Humidity;BMP_temperature;BMP_pressure;BME280_temperature;BME280_humidity;BME280_pressure;Samples;Min_cycle;Max_cycle;Signal;HPM_P1;HPM_P2
2022/05/29 00:00:17;;;;;;;3.65;2.25;;;13.90;84.30;;;;;;4995573;28;20085;-67
2022/05/29 00:02:42;;;;;;;5.32;2.35;;;14.00;84.60;;;;;;5001671;28;20029;-67
2022/05/29 00:05:11;;;;;;;9.18;2.72;;;13.90;85.10;;;;;;5012327;28;20362;-67
2022/05/29 00:07:38;;;;;;;7.45;2.60;;;13.90;85.60;;;;;;5015936;28;20045;-66
2022/05/29 00:10:06;;;;;;;7.68;2.38;;;14.00;86.10;;;;;;4996372;28;20057;-66
2022/05/29 00:12:32;;;;;;;9.63;2.40;;;14.00;86.30;;;;;;5013515;28;20638;-66
2022/05/29 00:14:57;;;;;;;6.30;2.22;;;14.00;86.70;;;;;;4995692;28;20054;-66
2022/05/29 00:17:23;;;;;;;6.13;2.00;;;14.00;87.00;;;;;;5001841;28;20092;-66
2022/05/29 00:19:49;;;;;;;7.65;2.40;;;14.00;87.10;;;;;;5010571;28;20030;-66
2022/05/29 00:22:17;;;;;;;5.40;2.05;;;14.00;87.20;;;;;;5009715;28;20022;-66
2022/05/29 00:24:45;;;;;;;7.75;2.00;;;14.00;87.60;;;;;;4997755;28;20482;-66
2022/05/29 00:27:11;;;;;;;7.65;2.90;;;14.00;87.40;;;;;;5004191;28;20078;-67
2022/05/29 00:29:37;;;;;;;7.45;2.42;;;13.90;87.30;;;;;;5008310;28;20373;-67
2022/05/29 00:32:05;;;;;;;5.35;2.03;;;13.90;87.00;;;;;;5009048;28;20026;-66
2022/05/29 00:34:31;;;;;;;5.13;1.90;;;13.90;86.80;;;;;;5007547;28;20030;-67
2022/05/29 00:36:58;;;;;;;4.65;1.92;;;13.90;86.70;;;;;;5011175;28;20026;-67
2022/05/29 00:39:24;;;;;;;6.50;2.30;;;13.90;86.60;;;;;;4999910;28;20058;-65
2022/05/29 00:41:50;;;;;;;7.53;1.95;;;13.90;87.00;;;;;;5018871;28;20064;-65
2022/05/29 00:44:27;;;;;;;8.15;2.15;;;13.90;86.80;;;;;;5012380;28;20041;-64
2022/05/29 00:46:55;;;;;;;4.50;2.08;;;13.90;86.70;;;;;;5005561;28;20049;-65
2022/05/29 00:49:28;;;;;;;7.38;1.98;;;13.90;86.60;;;;;;5005490;28;20492;-65
2022/05/29 00:52:00;;;;;;;5.18;1.73;;;13.80;87.20;;;;;;5011962;28;20042;-65
2022/05/29 00:54:28;;;;;;;9.75;2.53;;;13.80;86.80;;;;;;5006546;28;20399;-65
2022/05/29 00:56:53;;;;;;;12.30;3.33;;;13.80;87.00;;;;;;5007581;28;20030;-65
2022/05/29 00:59:23;;;;;;;5.95;2.70;;;13.80;86.40;;;;;;5014055;28;20030;-66
2022/05/29 01:01:50;;;;;;;6.60;2.35;;;13.80;86.00;;;;;;5018208;28;20139;-66
2022/05/29 01:04:16;;;;;;;8.40;2.78;;;13.80;85.80;;;;;;5011589;28;20495;-66
2022/05/29 01:06:42;;;;;;;9.82;3.13;;;13.70;85.80;;;;;;5021503;28;20165;-65
2022/05/29 01:09:09;;;;;;;6.72;2.00;;;13.70;85.60;;;;;;5001964;28;20057;-65
2022/05/29 01:11:48;;;;;;;7.60;1.90;;;13.70;85.60;;;;;;4997092;28;20049;-66
2022/05/29 01:14:51;;;;;;;4.40;2.20;;;13.70;86.00;;;;;;5001106;28;20505;-66
2022/05/29 01:17:43;;;;;;;4.95;2.15;;;13.70;85.80;;;;;;5024399;28;20056;-65
2022/05/29 01:20:20;;;;;;;8.20;2.20;;;13.70;85.70;;;;;;4993595;28;20494;-65
2022/05/29 01:23:13;;;;;;;5.97;2.70;;;13.70;85.80;;;;;;4997497;28;20033;-65
2022/05/29 01:26:05;;;;;;;8.45;2.28;;;13.60;85.70;;;;;;5009783;28;20492;-65
2022/05/29 01:28:51;;;;;;;5.15;2.10;;;13.60;86.20;;;;;;5017279;28;20038;-65
2022/05/29 01:31:31;;;;;;;6.43;2.00;;;13.60;85.80;;;;;;5006253;28;20489;-69
2022/05/29 01:34:12;;;;;;;9.20;2.13;;;13.60;85.90;;;;;;5001057;28;20098;-64
2022/05/29 01:37:05;;;;;;;6.38;2.30;;;13.60;86.20;;;;;;5005729;28;20504;-64
2022/05/29 01:39:52;;;;;;;5.60;1.80;;;13.60;86.10;;;;;;5010923;28;20424;-64
2022/05/29 01:42:43;;;;;;;6.35;2.13;;;13.50;86.20;;;;;;5025554;28;20030;-65
2022/05/29 01:45:33;;;;;;;3.92;1.90;;;13.50;86.10;;;;;;4995338;28;20026;-65
2022/05/29 01:48:14;;;;;;;4.65;1.63;;;13.50;86.30;;;;;;5027308;28;20052;-65
2022/05/29 01:51:13;;;;;;;10.20;2.00;;;13.50;86.20;;;;;;5009453;28;20037;-65
2022/05/29 01:53:43;;;;;;;4.68;1.80;;;13.50;86.10;;;;;;5009715;28;20092;-65
2022/05/29 01:56:35;;;;;;;4.60;2.10;;;13.50;86.30;;;;;;5010531;28;20045;-65
2022/05/29 01:59:09;;;;;;;3.72;1.60;;;13.50;86.70;;;;;;5023337;28;20034;-65
2022/05/29 02:01:39;;;;;;;5.55;1.77;;;13.50;86.60;;;;;;5026108;28;20118;-65
2022/05/29 02:04:10;;;;;;;5.05;2.15;;;13.50;86.90;;;;;;4994712;28;20034;-65
2022/05/29 02:09:32;;;;;;;8.02;2.25;;;13.50;86.60;;;;;;5014944;28;20053;-65
2022/05/29 02:12:01;;;;;;;4.95;1.85;;;13.50;86.80;;;;;;5019135;28;20025;-65
2022/05/29 02:14:32;;;;;;;5.90;2.45;;;13.50;87.00;;;;;;4996133;28;20026;-65
2022/05/29 02:17:11;;;;;;;4.40;1.67;;;13.50;86.80;;;;;;5003367;28;20067;-65
2022/05/29 02:19:52;;;;;;;7.25;2.13;;;13.50;87.20;;;;;;4994897;28;20129;-65
2022/05/29 02:22:27;;;;;;;9.02;2.95;;;13.50;87.00;;;;;;5001530;28;20405;-65
2022/05/29 02:25:07;;;;;;;7.05;2.22;;;13.50;86.80;;;;;;5000325;28;20117;-65
2022/05/29 02:27:35;;;;;;;5.40;1.98;;;13.50;86.70;;;;;;5019173;28;20042;-65
2022/05/29 02:30:03;;;;;;;8.52;2.35;;;13.50;86.80;;;;;;5013905;28;20049;-65
2022/05/29 02:32:50;;;;;;;7.40;2.63;;;13.50;87.10;;;;;;5022818;28;20119;-65
2022/05/29 02:35:21;;;;;;;5.47;2.03;;;13.50;87.10;;;;;;5018998;28;20100;-65
2022/05/29 02:38:06;;;;;;;4.75;1.70;;;13.60;86.90;;;;;;5015411;28;20371;-65
2022/05/29 02:40:43;;;;;;;4.90;1.80;;;13.60;87.00;;;;;;5002680;28;20049;-65
2022/05/29 02:43:17;;;;;;;6.63;2.70;;;13.60;87.00;;;;;;5013070;28;20092;-65
2022/05/29 02:45:55;;;;;;;4.90;2.22;;;13.60;87.00;;;;;;5021439;28;20039;-65
2022/05/29 02:48:32;;;;;;;6.00;2.20;;;13.70;87.10;;;;;;4998023;28;20449;-65
2022/05/29 02:51:08;;;;;;;5.43;2.08;;;13.70;87.20;;;;;;4998026;28;20030;-65
2022/05/29 02:53:34;;;;;;;5.63;2.75;;;13.70;86.90;;;;;;5007395;28;20389;-66
2022/05/29 02:56:04;;;;;;;5.78;2.33;;;13.70;86.70;;;;;;5014046;28;20038;-66
2022/05/29 02:58:32;;;;;;;5.38;2.08;;;13.80;86.80;;;;;;5019961;28;20033;-66
2022/05/29 03:01:16;;;;;;;8.60;2.80;;;13.80;86.70;;;;;;5011682;28;20072;-66
2022/05/29 03:03:54;;;;;;;4.15;2.13;;;13.80;86.60;;;;;;5023621;28;20025;-66
2022/05/29 03:06:28;;;;;;;6.35;2.00;;;13.80;86.60;;;;;;5024858;28;20042;-66
2022/05/29 03:09:20;;;;;;;5.43;2.13;;;13.70;86.60;;;;;;5001707;28;20082;-65
2022/05/29 03:11:47;;;;;;;6.10;2.22;;;13.80;86.70;;;;;;5017983;28;20033;-66
2022/05/29 03:14:49;;;;;;;5.55;2.25;;;13.80;87.20;;;;;;5014135;28;20500;-65
2022/05/29 03:17:37;;;;;;;5.53;2.25;;;13.80;87.20;;;;;;5022626;28;20060;-65
2022/05/29 03:20:17;;;;;;;6.63;2.33;;;13.80;87.00;;;;;;5025536;28;20034;-65
2022/05/29 03:23:08;;;;;;;5.70;2.13;;;13.80;86.80;;;;;;4998937;28;20033;-65
2022/05/29 03:25:38;;;;;;;5.38;2.03;;;13.80;86.80;;;;;;4999465;28;20030;-65
2022/05/29 03:28:10;;;;;;;8.30;2.53;;;13.80;87.00;;;;;;5010718;28;20125;-65
2022/05/29 03:30:39;;;;;;;5.57;2.40;;;13.80;87.00;;;;;;4994442;28;20023;-65
2022/05/29 03:33:07;;;;;;;7.00;2.22;;;13.80;87.00;;;;;;5012477;28;20034;-65
2022/05/29 03:35:43;;;;;;;7.75;2.42;;;13.80;87.40;;;;;;5025861;28;20108;-65
2022/05/29 03:38:09;;;;;;;5.80;1.95;;;13.80;87.30;;;;;;5009417;28;20034;-65
2022/05/29 03:40:35;;;;;;;4.45;2.08;;;13.80;87.30;;;;;;5013931;28;20032;-65
2022/05/29 03:43:00;;;;;;;7.32;2.70;;;13.80;87.20;;;;;;5016127;28;20057;-65
2022/05/29 03:45:26;;;;;;;6.35;2.70;;;13.80;87.40;;;;;;5012466;28;20077;-65
2022/05/29 03:47:52;;;;;;;6.65;2.38;;;13.80;87.60;;;;;;5008135;28;20393;-65
2022/05/29 03:50:20;;;;;;;10.50;2.72;;;13.80;87.50;;;;;;5024817;28;20030;-65
2022/05/29 03:52:47;;;;;;;5.78;2.70;;;13.90;87.60;;;;;;5006319;28;20033;-66
2022/05/29 03:55:14;;;;;;;7.30;2.60;;;13.90;87.80;;;;;;5013705;28;20024;-66
2022/05/29 03:57:39;;;;;;;7.15;2.35;;;13.90;87.60;;;;;;5009318;28;20053;-66
2022/05/29 04:00:07;;;;;;;6.05;2.47;;;13.90;87.60;;;;;;4994234;28;20474;-66
2022/05/29 04:02:33;;;;;;;8.80;2.50;;;14.00;87.50;;;;;;5001076;28;20053;-66
2022/05/29 04:04:59;;;;;;;6.25;2.40;;;14.00;87.30;;;;;;5004859;28;20470;-65
2022/05/29 04:12:03;;;;;;;11.35;3.35;;;14.00;87.30;;;;;;4998196;28;20042;-65
2022/05/29 04:12:55;;;;;;;5.10;2.50;;;14.00;87.50;;;;;;5007526;28;20109;-65
2022/05/29 04:15:21;;;;;;;8.68;2.40;;;14.00;87.50;;;;;;4994120;28;20117;-65
2022/05/29 04:17:46;;;;;;;8.27;2.92;;;14.00;87.40;;;;;;5001958;28;20030;-65
2022/05/29 04:20:12;;;;;;;6.35;2.28;;;14.00;87.60;;;;;;5013289;28;20026;-65
2022/05/29 04:22:37;;;;;;;5.90;2.40;;;14.10;87.80;;;;;;5010841;28;20385;-65
2022/05/29 04:25:03;;;;;;;5.22;2.03;;;14.10;87.60;;;;;;5012570;28;20489;-65
2022/05/29 04:27:28;;;;;;;5.35;1.83;;;14.10;87.70;;;;;;5009982;28;20076;-65
2022/05/29 04:29:54;;;;;;;8.18;2.20;;;14.10;87.70;;;;;;5012702;28;20025;-65
2022/05/29 04:35:04;;;;;;;7.45;2.33;;;14.20;87.70;;;;;;5016053;28;20072;-65
2022/05/29 04:37:30;;;;;;;5.25;2.00;;;14.20;87.80;;;;;;5006301;28;20049;-65
2022/05/29 04:39:55;;;;;;;5.68;2.33;;;14.20;87.70;;;;;;5026129;28;20022;-66
2022/05/29 04:42:21;;;;;;;5.35;2.33;;;14.20;87.60;;;;;;4996618;28;20428;-65
2022/05/29 04:44:47;;;;;;;7.88;2.20;;;14.30;87.80;;;;;;5027773;28;20570;-65
2022/05/29 04:47:12;;;;;;;5.10;2.25;;;14.30;87.70;;;;;;4993649;28;20456;-65
2022/05/29 04:49:38;;;;;;;7.63;2.15;;;14.30;87.80;;;;;;5028478;28;20036;-65
2022/05/29 04:52:08;;;;;;;5.63;2.05;;;14.30;87.80;;;;;;5022374;28;20037;-64
2022/05/29 04:54:35;;;;;;;4.53;2.35;;;14.30;87.70;;;;;;5027795;28;20029;-65
2022/05/29 04:57:00;;;;;;;8.45;2.30;;;14.30;87.60;;;;;;4996611;28;20034;-65
2022/05/29 04:59:26;;;;;;;4.07;2.15;;;14.40;87.50;;;;;;5003122;28;20027;-65
2022/05/29 05:01:52;;;;;;;7.05;2.97;;;14.40;87.80;;;;;;5007328;28;20117;-65
2022/05/29 05:04:18;;;;;;;5.45;2.13;;;14.40;87.80;;;;;;4997386;28;20023;-65
2022/05/29 05:06:43;;;;;;;4.03;2.35;;;14.50;87.80;;;;;;4998077;28;20596;-65
2022/05/29 05:09:09;;;;;;;3.08;1.95;;;14.50;87.90;;;;;;5015831;28;20566;-65
2022/05/29 05:11:34;;;;;;;5.32;2.22;;;14.60;87.70;;;;;;5005682;28;20019;-65
2022/05/29 05:14:00;;;;;;;7.05;2.20;;;14.60;87.50;;;;;;4997552;28;20030;-70
2022/05/29 05:16:25;;;;;;;7.07;3.08;;;14.60;87.60;;;;;;4994989;28;20041;-73
2022/05/29 05:18:51;;;;;;;5.30;2.25;;;14.70;87.40;;;;;;4993624;28;20034;-74
2022/05/29 05:21:17;;;;;;;7.93;2.50;;;14.80;87.20;;;;;;5008818;28;20053;-72
2022/05/29 05:23:42;;;;;;;7.95;2.33;;;14.80;87.00;;;;;;5002339;28;20394;-70
2022/05/29 05:26:13;;;;;;;8.48;2.47;;;14.80;87.10;;;;;;4992626;28;20030;-69
2022/05/29 05:28:38;;;;;;;6.82;2.42;;;14.80;87.20;;;;;;4997023;28;20385;-69
2022/05/29 05:31:03;;;;;;;5.78;2.38;;;14.80;87.90;;;;;;5002325;28;20026;-69
2022/05/29 05:33:29;;;;;;;6.95;2.40;;;14.90;87.30;;;;;;5004646;28;20034;-69
2022/05/29 05:35:56;;;;;;;4.82;2.30;;;14.90;87.20;;;;;;4992588;28;20018;-69
2022/05/29 05:38:22;;;;;;;6.13;2.45;;;14.90;87.30;;;;;;5004580;28;20092;-69
2022/05/29 05:40:47;;;;;;;7.25;2.70;;;14.90;87.20;;;;;;4991753;28;20111;-69
2022/05/29 05:43:13;;;;;;;6.50;2.53;;;14.90;87.00;;;;;;5004179;28;20610;-68
2022/05/29 05:45:42;;;;;;;6.70;2.20;;;15.00;86.90;;;;;;5010790;28;20038;-68
2022/05/29 05:48:08;;;;;;;6.80;2.35;;;15.00;86.80;;;;;;5001046;28;20038;-69
2022/05/29 05:50:34;;;;;;;5.63;2.38;;;15.00;86.70;;;;;;5011465;28;20117;-69
2022/05/29 05:53:00;;;;;;;6.10;2.25;;;15.00;86.60;;;;;;5006275;28;20184;-69
2022/05/29 05:55:25;;;;;;;7.03;2.70;;;15.00;86.70;;;;;;5008169;28;20026;-69
2022/05/29 05:57:53;;;;;;;5.68;2.63;;;15.00;86.60;;;;;;5008422;28;20488;-68
2022/05/29 06:00:19;;;;;;;6.65;2.85;;;14.90;86.90;;;;;;5009891;28;20030;-69
2022/05/29 06:02:44;;;;;;;3.85;2.08;;;14.90;87.00;;;;;;4995528;28;20041;-69
2022/05/29 06:05:11;;;;;;;6.97;2.97;;;14.90;87.20;;;;;;5017546;28;20030;-69
2022/05/29 06:07:36;;;;;;;6.85;2.45;;;14.90;87.20;;;;;;4994098;28;20125;-68
2022/05/29 06:10:03;;;;;;;6.22;2.40;;;15.00;87.30;;;;;;5004228;28;20557;-68
2022/05/29 06:12:28;;;;;;;6.68;2.35;;;14.90;87.40;;;;;;5007407;28;20025;-68
2022/05/29 06:14:54;;;;;;;9.80;3.30;;;14.90;87.40;;;;;;4998260;28;20113;-69
2022/05/29 06:17:20;;;;;;;6.38;2.50;;;15.00;87.30;;;;;;4991876;28;20034;-70
2022/05/29 06:19:46;;;;;;;5.28;2.20;;;15.00;87.30;;;;;;5000870;28;20080;-69
2022/05/29 06:22:11;;;;;;;5.35;2.65;;;15.10;87.40;;;;;;5008790;28;20034;-68
2022/05/29 06:24:37;;;;;;;5.70;2.40;;;15.00;87.40;;;;;;5004513;28;20034;-68
2022/05/29 06:27:03;;;;;;;5.95;2.33;;;15.10;87.30;;;;;;4992060;28;20134;-69
2022/05/29 06:29:29;;;;;;;4.40;2.15;;;15.10;87.30;;;;;;4997481;28;20069;-69
2022/05/29 06:32:00;;;;;;;6.25;2.58;;;15.20;87.30;;;;;;5006014;28;20034;-70
2022/05/29 06:34:25;;;;;;;8.18;2.65;;;15.20;87.40;;;;;;4997145;28;20057;-69
2022/05/29 06:36:51;;;;;;;7.30;2.60;;;15.30;87.20;;;;;;5006516;28;20069;-69
2022/05/29 06:39:16;;;;;;;5.50;2.72;;;15.30;87.00;;;;;;5011446;28;20028;-70
2022/05/29 06:41:42;;;;;;;4.28;2.50;;;15.40;87.10;;;;;;4991932;28;20018;-70
2022/05/29 06:44:07;;;;;;;6.45;2.78;;;15.40;87.10;;;;;;5006813;28;20485;-70
2022/05/29 06:46:33;;;;;;;6.63;2.75;;;15.50;86.80;;;;;;4992338;28;20504;-70
2022/05/29 06:48:58;;;;;;;9.85;2.72;;;15.60;86.60;;;;;;5008312;28;20022;-70
2022/05/29 06:51:24;;;;;;;6.88;2.50;;;15.70;86.50;;;;;;5011226;28;20563;-70
2022/05/29 06:53:52;;;;;;;7.80;2.55;;;15.80;86.20;;;;;;5009248;28;20028;-70
2022/05/29 06:56:19;;;;;;;5.68;2.28;;;15.80;85.90;;;;;;5030837;28;20026;-70
2022/05/29 06:58:46;;;;;;;7.00;2.50;;;15.80;86.20;;;;;;5012240;28;20061;-71
2022/05/29 07:06:59;;;;;;;7.05;2.65;;;16.00;85.70;;;;;;5022186;28;20061;-70
2022/05/29 07:09:30;;;;;;;9.32;2.65;;;16.10;85.50;;;;;;5018243;28;20085;-70
2022/05/29 07:12:08;;;;;;;6.05;2.20;;;16.10;85.10;;;;;;5022155;28;20053;-71
2022/05/29 07:14:46;;;;;;;7.40;2.58;;;16.20;84.90;;;;;;5006828;28;20473;-71
2022/05/29 07:17:11;;;;;;;5.43;2.53;;;16.20;84.40;;;;;;5015756;28;20033;-71
2022/05/29 07:19:38;;;;;;;7.32;3.60;;;16.40;84.60;;;;;;5011753;28;20034;-69
2022/05/29 07:22:03;;;;;;;6.93;2.65;;;16.50;84.60;;;;;;5015849;28;20026;-71
2022/05/29 07:24:32;;;;;;;7.32;2.95;;;16.70;84.10;;;;;;5010349;28;20077;-69
2022/05/29 07:26:57;;;;;;;5.15;2.35;;;16.80;84.10;;;;;;5009399;28;20029;-72
2022/05/29 07:29:24;;;;;;;7.60;2.97;;;17.00;83.70;;;;;;5009196;28;20505;-68
2022/05/29 07:31:51;;;;;;;6.40;2.58;;;17.10;83.20;;;;;;5013761;28;20037;-67
2022/05/29 07:34:17;;;;;;;4.88;2.13;;;17.30;82.80;;;;;;5004667;28;20042;-67
2022/05/29 07:36:42;;;;;;;5.70;3.40;;;17.40;82.20;;;;;;5010521;28;20017;-67
2022/05/29 07:39:09;;;;;;;4.13;2.22;;;17.50;81.90;;;;;;4996139;28;20122;-68
2022/05/29 07:44:18;;;;;;;5.18;2.53;;;17.40;81.10;;;;;;5004453;28;20033;-70
2022/05/29 07:46:44;;;;;;;6.45;2.38;;;17.30;80.80;;;;;;5012642;28;20052;-67
2022/05/29 07:49:09;;;;;;;5.55;2.13;;;17.30;81.20;;;;;;5004976;28;20355;-68
2022/05/29 07:51:35;;;;;;;5.65;2.30;;;17.20;80.30;;;;;;4998159;28;20113;-68
2022/05/29 07:54:00;;;;;;;11.55;2.25;;;17.20;80.20;;;;;;5016479;28;20036;-68
2022/05/29 07:56:26;;;;;;;5.97;2.50;;;17.20;80.10;;;;;;5011629;28;20033;-68
2022/05/29 07:58:52;;;;;;;6.53;2.30;;;17.20;79.70;;;;;;5005023;28;20029;-68
2022/05/29 08:01:19;;;;;;;4.82;2.08;;;17.20;79.70;;;;;;5013448;28;20511;-67
2022/05/29 08:03:44;;;;;;;7.15;2.28;;;17.20;80.00;;;;;;4999334;28;20089;-67
2022/05/29 08:06:10;;;;;;;7.30;2.63;;;17.10;80.10;;;;;;5006287;28;20730;-68
2022/05/29 08:08:37;;;;;;;7.25;2.53;;;17.10;80.30;;;;;;5014976;28;20033;-68
2022/05/29 08:11:03;;;;;;;3.05;1.95;;;17.20;80.40;;;;;;5019844;28;20048;-68
2022/05/29 08:13:31;;;;;;;5.03;2.20;;;17.20;80.80;;;;;;5016136;28;20030;-68
2022/05/29 08:15:56;;;;;;;5.65;2.35;;;17.20;80.50;;;;;;5002158;28;20081;-68
2022/05/29 08:18:23;;;;;;;5.88;2.15;;;17.30;80.80;;;;;;5014168;28;20018;-68
2022/05/29 08:20:48;;;;;;;4.85;2.13;;;17.40;80.40;;;;;;5011376;28;20072;-68
2022/05/29 08:23:14;;;;;;;3.35;1.90;;;17.50;80.30;;;;;;5013021;28;22517;-66
2022/05/29 08:31:07;;;;;;;5.15;2.22;;;17.70;79.60;;;;;;5004032;28;20408;-68
2022/05/29 08:33:35;;;;;;;4.57;2.30;;;17.70;79.80;;;;;;5016444;28;20116;-68
2022/05/29 08:36:14;;;;;;;6.43;2.25;;;17.80;78.90;;;;;;5014718;28;20033;-68
2022/05/29 08:38:43;;;;;;;2.33;1.50;;;17.80;78.10;;;;;;5012084;28;20041;-68
2022/05/29 08:41:41;;;;;;;2.67;1.60;;;17.80;76.90;;;;;;5000387;28;20034;-68
2022/05/29 08:44:24;;;;;;;2.83;1.60;;;17.70;77.00;;;;;;5005911;28;20037;-69
2022/05/29 08:47:00;;;;;;;5.47;2.15;;;17.70;76.90;;;;;;5021063;28;20367;-69
2022/05/29 08:49:29;;;;;;;7.47;2.10;;;17.80;76.80;;;;;;5005641;28;20067;-68
2022/05/29 08:52:12;;;;;;;4.35;1.95;;;17.80;77.10;;;;;;5010288;28;20085;-68
2022/05/29 08:54:54;;;;;;;4.93;2.22;;;17.90;77.20;;;;;;4992269;28;20030;-69
2022/05/29 08:57:40;;;;;;;4.03;1.98;;;18.10;77.40;;;;;;4993219;28;20034;-69
2022/05/29 09:00:22;;;;;;;3.97;1.80;;;18.20;77.30;;;;;;5008858;28;20102;-69
2022/05/29 09:02:50;;;;;;;5.70;1.70;;;18.30;77.00;;;;;;5019676;28;20034;-69
2022/05/29 09:05:37;;;;;;;4.22;2.33;;;18.50;76.90;;;;;;5022282;28;20026;-68
2022/05/29 09:08:15;;;;;;;4.45;2.28;;;18.60;76.60;;;;;;5015881;28;20042;-68
2022/05/29 09:10:45;;;;;;;3.65;1.80;;;18.80;76.50;;;;;;5004540;28;20053;-68
2022/05/29 09:13:17;;;;;;;4.13;1.80;;;19.00;75.80;;;;;;5003018;28;20049;-68
2022/05/29 09:15:58;;;;;;;4.28;2.03;;;19.20;75.80;;;;;;5008281;28;20038;-68
2022/05/29 09:18:30;;;;;;;5.00;1.70;;;19.20;75.90;;;;;;5006591;28;20022;-68
2022/05/29 09:21:03;;;;;;;6.90;1.77;;;19.30;75.50;;;;;;5010910;28;20034;-68
2022/05/29 09:23:42;;;;;;;5.25;2.13;;;19.30;75.10;;;;;;5012460;28;20116;-68
2022/05/29 09:26:14;;;;;;;5.38;2.40;;;19.30;75.20;;;;;;5020846;28;20160;-68
2022/05/29 09:28:41;;;;;;;3.58;1.75;;;19.30;74.60;;;;;;5001058;28;20104;-68
2022/05/29 09:31:10;;;;;;;3.33;1.85;;;19.20;73.90;;;;;;5023047;28;20033;-68
2022/05/29 09:33:37;;;;;;;2.58;1.60;;;19.10;73.80;;;;;;4994398;28;20026;-68
2022/05/29 09:36:32;;;;;;;6.03;2.33;;;19.00;73.20;;;;;;5012516;28;20041;-68
2022/05/29 09:39:11;;;;;;;3.65;1.60;;;19.00;73.30;;;;;;5007431;28;20029;-68
2022/05/29 09:42:00;;;;;;;4.85;1.60;;;18.90;73.10;;;;;;5006182;28;20042;-68
2022/05/29 09:44:27;;;;;;;2.08;1.35;;;18.80;73.50;;;;;;4998334;28;20117;-68
2022/05/29 09:46:55;;;;;;;3.47;1.60;;;18.80;73.70;;;;;;5008178;28;20050;-68
2022/05/29 09:49:45;;;;;;;3.25;1.63;;;18.70;73.60;;;;;;5007392;28;20026;-68
2022/05/29 09:52:14;;;;;;;1.88;1.55;;;18.70;73.80;;;;;;5008815;28;20113;-67
2022/05/29 09:54:50;;;;;;;3.90;1.67;;;18.50;73.60;;;;;;5014932;28;20096;-68
2022/05/29 09:57:29;;;;;;;4.68;1.60;;;18.50;74.20;;;;;;5007113;28;20124;-67
2022/05/29 10:00:23;;;;;;;3.10;1.80;;;18.30;74.50;;;;;;5024813;28;20022;-68
2022/05/29 10:02:49;;;;;;;3.67;1.70;;;18.30;75.00;;;;;;4994686;28;20026;-69
2022/05/29 10:05:37;;;;;;;3.65;1.70;;;18.10;75.40;;;;;;5002437;28;20029;-68
2022/05/29 10:08:17;;;;;;;3.65;1.95;;;18.00;75.20;;;;;;5010939;28;20038;-68
2022/05/29 10:10:42;;;;;;;5.38;1.80;;;18.00;75.80;;;;;;5001418;28;20053;-68
2022/05/29 10:13:08;;;;;;;6.05;2.25;;;17.90;75.80;;;;;;5005100;28;20038;-69
2022/05/29 10:15:42;;;;;;;4.38;1.80;;;17.90;75.70;;;;;;5019904;28;20026;-69
2022/05/29 10:18:12;;;;;;;4.15;2.70;;;18.00;76.00;;;;;;5005954;28;20630;-69
2022/05/29 10:20:44;;;;;;;3.33;1.55;;;18.00;75.90;;;;;;5015248;28;20058;-69
2022/05/29 10:23:31;;;;;;;2.90;1.70;;;18.10;75.50;;;;;;5004429;28;20022;-69
2022/05/29 10:26:01;;;;;;;4.60;1.80;;;18.10;75.20;;;;;;5019723;28;20129;-68
2022/05/29 10:28:34;;;;;;;3.35;1.80;;;18.20;75.20;;;;;;5003378;28;20085;-69
2022/05/29 10:31:10;;;;;;;3.45;1.63;;;18.30;75.00;;;;;;5002479;28;20030;-70
2022/05/29 10:33:35;;;;;;;4.85;2.53;;;18.30;75.10;;;;;;5007048;28;20033;-69
2022/05/29 10:36:12;;;;;;;5.43;2.33;;;18.30;75.40;;;;;;5015799;28;20077;-69
2022/05/29 10:38:38;;;;;;;3.83;2.20;;;18.30;75.40;;;;;;5002152;28;20030;-69
2022/05/29 10:41:06;;;;;;;6.97;2.28;;;18.20;76.10;;;;;;5010170;28;20030;-69
2022/05/29 10:43:37;;;;;;;4.57;2.10;;;18.20;76.50;;;;;;5012518;28;20041;-68
2022/05/29 10:46:24;;;;;;;4.70;1.65;;;18.30;75.50;;;;;;5012248;28;20393;-68
2022/05/29 10:49:04;;;;;;;3.50;1.73;;;18.30;74.90;;;;;;5011908;28;20058;-68
2022/05/29 10:51:46;;;;;;;4.22;2.08;;;18.40;75.40;;;;;;5004884;28;20025;-68
2022/05/29 10:54:31;;;;;;;4.65;1.85;;;18.40;74.60;;;;;;5010162;28;20041;-68
2022/05/29 10:57:21;;;;;;;4.22;1.48;;;18.50;74.40;;;;;;5017297;28;20108;-69
2022/05/29 11:00:09;;;;;;;3.67;1.58;;;18.50;74.00;;;;;;5010291;28;20034;-69
2022/05/29 11:05:54;;;;;;;3.30;1.92;;;18.70;73.20;;;;;;5002734;28;20034;-68
2022/05/29 11:08:34;;;;;;;4.45;1.92;;;18.80;72.80;;;;;;5008260;28;20404;-68
2022/05/29 11:11:25;;;;;;;3.95;2.10;;;18.80;73.30;;;;;;5011455;28;20042;-68
2022/05/29 11:14:12;;;;;;;4.75;2.20;;;18.80;73.40;;;;;;5008255;28;20150;-68
2022/05/29 11:16:56;;;;;;;4.38;1.88;;;18.80;73.80;;;;;;5015487;28;20033;-69
2022/05/29 11:19:35;;;;;;;4.37;2.30;;;18.90;73.60;;;;;;5009110;28;20034;-68
2022/05/29 11:22:22;;;;;;;5.20;1.67;;;19.00;73.90;;;;;;5016383;28;20068;-68
2022/05/29 11:25:12;;;;;;;2.03;1.48;;;19.10;73.40;;;;;;5011362;28;20022;-68
2022/05/29 11:28:15;;;;;;;2.75;1.40;;;19.20;73.30;;;;;;5014828;28;20038;-68
2022/05/29 11:31:14;;;;;;;3.33;1.40;;;19.30;73.40;;;;;;5009291;28;20092;-69
2022/05/29 11:34:06;;;;;;;2.20;1.35;;;19.30;73.10;;;;;;4997081;28;20057;-69
2022/05/29 11:36:54;;;;;;;2.70;1.80;;;19.40;72.60;;;;;;5006349;28;20509;-69
2022/05/29 11:39:48;;;;;;;3.45;2.08;;;19.40;73.00;;;;;;4998579;28;20030;-68
2022/05/29 11:42:40;;;;;;;5.68;1.60;;;19.50;72.30;;;;;;4993770;28;20030;-69
2022/05/29 11:45:11;;;;;;;4.00;1.70;;;19.60;71.40;;;;;;5010622;28;20021;-69
2022/05/29 11:54:05;;;;;;;4.85;1.90;;;19.70;70.10;;;;;;5010171;28;20393;-68
2022/05/29 11:56:44;;;;;;;5.05;2.17;;;19.60;69.80;;;;;;4993924;28;20054;-68
2022/05/29 11:59:42;;;;;;;5.13;2.22;;;19.40;69.80;;;;;;4997785;28;20042;-68
2022/05/29 12:02:22;;;;;;;2.25;1.40;;;19.20;70.00;;;;;;5000214;28;20027;-69
2022/05/29 12:04:58;;;;;;;3.95;2.00;;;19.10;70.60;;;;;;5009610;28;20383;-69
2022/05/29 12:07:33;;;;;;;5.00;2.45;;;19.10;71.20;;;;;;5007165;28;20041;-69
2022/05/29 12:10:10;;;;;;;6.72;2.40;;;19.20;71.90;;;;;;4996079;28;20499;-67
2022/05/29 12:12:43;;;;;;;3.95;1.95;;;19.30;72.00;;;;;;5011225;28;20034;-69
2022/05/29 12:15:20;;;;;;;3.35;1.75;;;19.40;72.00;;;;;;5001266;28;20441;-70
2022/05/29 12:17:51;;;;;;;3.60;1.80;;;19.50;71.40;;;;;;4999056;28;20026;-69
2022/05/29 12:20:49;;;;;;;3.45;1.83;;;19.50;70.70;;;;;;4994309;28;20390;-72
2022/05/29 12:23:29;;;;;;;5.13;1.80;;;19.60;70.60;;;;;;5003660;28;20038;-69
2022/05/29 12:26:06;;;;;;;3.38;1.58;;;19.60;70.30;;;;;;4998692;28;20567;-69
2022/05/29 12:28:54;;;;;;;4.25;2.10;;;19.70;69.70;;;;;;4998013;28;20048;-69
2022/05/29 12:31:31;;;;;;;5.22;1.83;;;19.90;69.50;;;;;;4998702;28;20378;-69
2022/05/29 12:33:57;;;;;;;3.80;1.77;;;19.90;68.60;;;;;;5005876;28;20041;-69
2022/05/29 12:36:50;;;;;;;2.90;1.60;;;20.00;68.10;;;;;;5006390;28;20386;-69
2022/05/29 12:39:27;;;;;;;4.28;1.70;;;20.10;67.70;;;;;;4999202;28;20038;-69
2022/05/29 12:42:26;;;;;;;2.80;1.45;;;20.10;67.60;;;;;;4997520;28;20482;-69
2022/05/29 12:45:22;;;;;;;3.65;1.60;;;20.20;68.00;;;;;;4999170;28;20382;-69
2022/05/29 12:48:22;;;;;;;2.40;1.52;;;20.20;67.90;;;;;;5000470;28;20557;-68
2022/05/29 12:51:12;;;;;;;5.07;1.63;;;20.20;68.20;;;;;;4994061;28;20030;-68
2022/05/29 12:53:51;;;;;;;3.20;1.80;;;20.10;67.60;;;;;;5004150;28;20501;-69
2022/05/29 12:56:36;;;;;;;3.28;1.75;;;20.00;67.90;;;;;;4992397;28;20042;-69
2022/05/29 12:59:32;;;;;;;3.38;1.77;;;19.80;68.30;;;;;;5004121;28;20596;-69
2022/05/29 13:02:14;;;;;;;5.65;1.92;;;19.60;68.40;;;;;;5018835;28;20038;-69
2022/05/29 13:05:25;;;;;;;4.90;2.20;;;19.60;68.50;;;;;;5000122;28;20110;-69
2022/05/29 13:08:26;;;;;;;3.15;1.60;;;19.60;68.90;;;;;;4999295;28;20038;-69
2022/05/29 13:10:52;;;;;;;3.75;1.55;;;19.70;69.00;;;;;;5009428;28;20046;-69
2022/05/29 13:13:37;;;;;;;3.35;1.65;;;19.70;68.20;;;;;;5000747;28;20029;-69
2022/05/29 13:16:20;;;;;;;;;;;19.70;68.00;;;;;;5009946;28;20022;-68
2022/05/29 13:21:59;;;;;;;2.92;1.50;;;19.60;67.60;;;;;;4998233;28;20041;-72
2022/05/29 13:24:29;;;;;;;4.00;1.60;;;19.50;68.00;;;;;;4996019;28;20034;-69
2022/05/29 13:27:13;;;;;;;5.53;1.60;;;19.40;67.70;;;;;;4993742;28;20073;-67
2022/05/29 13:29:49;;;;;;;4.00;1.50;;;19.30;68.00;;;;;;4992887;28;20030;-70
2022/05/29 13:32:14;;;;;;;3.70;1.63;;;19.20;68.00;;;;;;5009014;28;20090;-72
2022/05/29 13:35:03;;;;;;;3.88;1.65;;;19.20;68.00;;;;;;5010768;28;20109;-70
2022/05/29 13:37:47;;;;;;;3.72;2.25;;;19.10;68.30;;;;;;4986371;28;20041;-70
2022/05/29 13:40:21;;;;;;;4.60;2.13;;;19.00;68.80;;;;;;5009907;28;20038;-71
2022/05/29 13:42:50;;;;;;;3.22;1.77;;;19.00;69.40;;;;;;5011520;28;20121;-69
2022/05/29 13:45:19;;;;;;;2.75;1.50;;;19.00;69.70;;;;;;5011441;28;20034;-70
2022/05/29 13:48:09;;;;;;;3.47;1.77;;;18.90;70.40;;;;;;5007794;28;20463;-70
2022/05/29 13:50:41;;;;;;;3.40;2.00;;;18.80;71.40;;;;;;4990427;28;20081;-70
2022/05/29 13:53:23;;;;;;;3.17;1.90;;;18.70;72.30;;;;;;5003676;28;20081;-70
2022/05/29 13:56:00;;;;;;;5.53;2.67;;;18.70;73.00;;;;;;5004287;28;20031;-68